createdAt,value
2022-10-22T00:04:52.374Z,7.40
2022-10-22T00:13:15.959Z,7.50
2022-10-22T00:21:39.150Z,7.45
2022-10-22T00:30:03.365Z,7.40
2022-10-22T00:38:26.585Z,7.49
2022-10-22T00:46:49.475Z,7.58
2022-10-22T00:55:14.350Z,7.54
2022-10-22T01:03:37.189Z,7.49
2022-10-22T01:12:19.160Z,7.57
2022-10-22T01:21:00.859Z,7.63
2022-10-22T01:29:34.184Z,7.64
2022-10-22T01:38:01.575Z,7.72
2022-10-22T01:46:27.302Z,7.65
2022-10-22T01:55:09.886Z,7.64
2022-10-22T02:03:45.249Z,7.73
2022-10-22T02:12:09.660Z,7.83
2022-10-22T02:20:35.803Z,7.81
2022-10-22T02:29:02.804Z,7.87
2022-10-22T02:37:27.527Z,7.84
2022-10-22T02:45:50.418Z,7.83
2022-10-22T02:54:13.226Z,7.91
2022-10-22T03:02:36.176Z,8.03
2022-10-22T03:10:59.145Z,8.06
2022-10-22T03:19:22.044Z,8.13
2022-10-22T03:27:46.592Z,8.10
2022-10-22T03:36:09.747Z,8.04
2022-10-22T03:44:33.732Z,8.08
2022-10-22T03:52:58.262Z,8.12
2022-10-22T04:01:21.070Z,8.11
2022-10-22T04:09:44.075Z,8.21
2022-10-22T04:18:06.873Z,8.27
2022-10-22T04:26:29.742Z,8.31
2022-10-22T04:34:52.768Z,8.46
2022-10-22T04:43:15.660Z,8.52
2022-10-22T04:51:38.477Z,8.46
2022-10-22T05:00:01.327Z,8.43
2022-10-22T05:08:24.213Z,8.39
2022-10-22T05:16:48.882Z,8.35
2022-10-22T05:25:12.317Z,8.42
2022-10-22T05:33:35.276Z,8.45
2022-10-22T05:41:58.562Z,8.43
2022-10-22T05:50:21.767Z,8.60
2022-10-22T05:58:45.559Z,8.78
2022-10-22T06:07:15.463Z,8.92
2022-10-22T06:15:38.342Z,9.11
2022-10-22T06:24:02.536Z,9.21
2022-10-22T06:32:25.504Z,9.33
2022-10-22T06:40:48.754Z,9.52
2022-10-22T06:49:15.616Z,9.64
2022-10-22T06:57:38.816Z,9.75
2022-10-22T07:06:03.596Z,9.90
2022-10-22T07:14:26.778Z,9.88
2022-10-22T07:22:53.157Z,9.78
2022-10-22T07:31:21.714Z,9.78
2022-10-22T07:39:47.413Z,9.92
2022-10-22T07:48:11.638Z,10.00
2022-10-22T07:56:34.540Z,10.28
2022-10-22T08:04:57.368Z,10.72
2022-10-22T08:13:20.808Z,10.84
2022-10-22T08:21:43.662Z,11.08
2022-10-22T08:30:07.305Z,11.32
2022-10-22T08:38:31.606Z,11.39
2022-10-22T08:47:09.761Z,11.69
2022-10-22T08:55:37.237Z,12.05
2022-10-22T09:04:27.793Z,11.87
2022-10-22T09:12:51.422Z,11.76
2022-10-22T09:21:29.318Z,11.93
2022-10-22T09:29:52.320Z,12.18
2022-10-22T09:38:18.965Z,12.28
2022-10-22T09:46:45.482Z,12.10
2022-10-22T09:55:18.494Z,12.06
2022-10-22T10:03:41.290Z,12.34
2022-10-22T10:12:09.908Z,12.63
2022-10-22T10:20:52.842Z,12.80
2022-10-22T10:29:21.890Z,12.72
2022-10-22T10:37:59.745Z,12.52
2022-10-22T10:46:48.178Z,12.36
2022-10-22T10:55:32.485Z,12.32
2022-10-22T11:04:11.993Z,12.31
2022-10-22T11:12:42.520Z,12.28
2022-10-22T11:21:18.913Z,12.22
2022-10-22T11:29:46.197Z,12.38
2022-10-22T11:38:15.152Z,12.58
2022-10-22T11:46:57.421Z,12.77
2022-10-22T11:55:45.455Z,12.86
2022-10-22T12:04:21.926Z,12.83
2022-10-22T12:12:45.067Z,12.67
2022-10-22T12:21:14.029Z,12.49
2022-10-22T12:29:36.773Z,12.35
2022-10-22T12:38:08.405Z,12.34
2022-10-22T12:46:33.880Z,12.27
2022-10-22T12:54:56.869Z,12.29
2022-10-22T13:03:32.954Z,12.36
2022-10-22T13:12:04.667Z,12.51
2022-10-22T13:20:27.593Z,12.66
2022-10-22T13:28:56.484Z,12.80
2022-10-22T13:37:19.555Z,12.91
2022-10-22T13:45:44.546Z,13.02
2022-10-22T13:54:15.261Z,12.93
2022-10-22T14:02:38.150Z,12.79
2022-10-22T14:11:01.011Z,12.65
2022-10-22T14:19:23.816Z,12.63
2022-10-22T14:27:47.480Z,12.54
2022-10-22T14:36:14.421Z,12.52
2022-10-22T14:44:37.399Z,12.52
2022-10-22T14:53:00.223Z,12.46
2022-10-22T15:01:23.026Z,12.31
2022-10-22T15:09:45.905Z,12.26
2022-10-22T15:18:08.691Z,12.30
2022-10-22T15:26:31.594Z,12.26
2022-10-22T15:34:55.123Z,12.25
2022-10-22T15:43:17.957Z,12.22
2022-10-22T15:51:40.817Z,12.13
2022-10-22T16:00:05.673Z,12.13
2022-10-22T16:08:35.702Z,12.12
2022-10-22T16:16:59.681Z,12.06
2022-10-22T16:25:26.302Z,12.05
2022-10-22T16:33:51.106Z,12.03
2022-10-22T16:42:13.966Z,11.97
2022-10-22T16:50:39.664Z,12.00
2022-10-22T16:59:02.549Z,12.02
2022-10-22T17:07:25.344Z,11.98
2022-10-22T17:15:48.123Z,11.97
2022-10-22T17:24:11.414Z,11.92
2022-10-22T17:32:39.795Z,11.84
2022-10-22T17:41:04.178Z,11.91
2022-10-22T17:49:28.826Z,11.95
2022-10-22T17:57:51.651Z,11.92
2022-10-22T18:06:14.955Z,11.98
2022-10-22T18:14:37.921Z,12.00
2022-10-22T18:23:00.657Z,11.95
2022-10-22T18:31:24.910Z,12.01
2022-10-22T18:39:47.735Z,12.02
2022-10-22T18:48:11.035Z,12.00
2022-10-22T18:56:34.025Z,12.08
2022-10-22T19:04:57.002Z,12.13
2022-10-22T19:13:21.200Z,12.12
2022-10-22T19:21:44.605Z,12.18
2022-10-22T19:30:07.844Z,12.24
2022-10-22T19:38:30.826Z,12.23
2022-10-22T19:46:53.908Z,12.28
2022-10-22T19:55:17.204Z,12.28
2022-10-22T20:03:40.482Z,12.17
2022-10-22T20:12:03.424Z,12.11
2022-10-22T20:20:26.706Z,12.12
2022-10-22T20:28:50.318Z,12.11
2022-10-22T20:37:13.294Z,12.08
2022-10-22T20:45:36.674Z,12.05
2022-10-22T20:53:59.481Z,12.08
2022-10-22T21:02:22.689Z,12.07
2022-10-22T21:10:46.517Z,11.99
2022-10-22T21:19:09.289Z,12.01
2022-10-22T21:27:32.117Z,12.07
2022-10-22T21:35:56.406Z,12.10
2022-10-22T21:44:19.226Z,12.02
2022-10-22T21:52:42.012Z,12.04
2022-10-22T22:01:04.889Z,12.05
2022-10-22T22:09:28.867Z,12.12
2022-10-22T22:17:51.721Z,12.12
2022-10-22T22:26:16.916Z,12.15
2022-10-22T22:34:40.809Z,12.19
2022-10-22T22:43:03.626Z,12.19
2022-10-22T22:51:26.477Z,12.18
2022-10-22T22:59:52.429Z,12.25
2022-10-22T23:08:15.258Z,12.33
2022-10-22T23:16:41.236Z,12.38
2022-10-22T23:25:04.313Z,12.35
2022-10-22T23:33:27.071Z,12.38
2022-10-22T23:41:50.440Z,12.43
2022-10-22T23:50:13.230Z,12.48
2022-10-22T23:58:36.567Z,12.45
